Hualapai Flat, Nevada Weather observations

Data are for 10 minute period ending at time listed.
 Day   Time   Solar   Ave.   Ave.  Ave.  Vector  Max.   Baro.   Total    
  of    of     Rad.   Air    Rel.  Wind   Wind   Wind  Press.  Precip.   
Year   Day            Temp.  Hum.  Speed  Dir.   Gust                    
2014   (PST)  Kw/m2    F      %     mph   deg.    mph    mb.     in.     
-------------------------------------------------------------------------
 204   20:30   0.00   72.4    25    7.9   265    11.1   877.7    0.00 
 204   20:40   0.00   71.7    25   10.0   268    13.7   877.7    0.00 
 204   20:50   0.00   72.4    25   10.9   269    18.4   877.8    0.00 
 204   21:00   0.00   70.2    35   10.2   289    15.1   877.9    0.00 
 204   21:10   0.00   68.8    38   10.0   292    16.6   877.9    0.00 
 204   21:20   0.00   69.8    33    7.4   267    13.5   877.8    0.00 
 204   21:30   0.00   68.5    40    8.6   291    12.3   878.0    0.00 
 204   21:40   0.00   67.4    44    8.0   302    12.4   878.2    0.00 
 204   21:50   0.00   66.3    46    6.8   298    10.1   878.2    0.00 
 204   22:00   0.00   65.2    48    7.2   297    12.0   878.3    0.00 
 204   22:10   0.00   65.9    47    7.2   294    11.1   878.3    0.00 
 204   22:20   0.00   65.3    48    7.1   299     9.7   878.4    0.00 
 204   22:30   0.00   64.6    50    6.9   304     8.9   878.4    0.00 
 204   22:40   0.00   63.0    52    7.9   306     9.6   878.4    0.00 
 204   22:50   0.00   62.6    52    8.0   308     9.9   878.5    0.00 
 204   23:00   0.00   62.7    53    6.9   302     8.6   878.7    0.00 
 204   23:10   0.00   61.9    54    5.8   294     7.2   878.7    0.00 
 204   23:20   0.00   61.4    54    5.7   296     7.5   878.7    0.00 
 204   23:30   0.00   59.9    57    6.2   288     7.8   878.8    0.00 
 204   23:40   0.00   58.9    59    6.3   284     8.2   878.8    0.00 
 204   23:50   0.00   59.5    58    6.5   284     8.2   878.9    0.00 
 205    0:00   0.00   59.8    58    7.0   278     8.4   878.8    0.00 
 205    0:10   0.00   58.2    60    6.9   284     8.8   878.8    0.00 
 205    0:20   0.00   57.7    61    6.9   284     9.3   878.8    0.00 
 205    0:30   0.00   58.3    61    7.4   280    10.2   878.8    0.00 
 205    0:40   0.00   58.3    59    8.1   276     9.9   878.9    0.00 
 205    0:50   0.00   58.2    59    8.1   280    10.2   879.0    0.00 
 205    1:00   0.00   57.5    60    7.6   287    10.2   879.0    0.00 
 205    1:10   0.00   58.0    59    8.2   284    11.5   879.0    0.00 
 205    1:20   0.00   58.5    57    7.8   283    10.1   879.0    0.00 
 205    1:30   0.00   57.1    59    6.6   294     8.5   879.0    0.00 
 205    1:40   0.00   55.9    62    6.8   287     8.3   879.0    0.00 
 205    1:50   0.00   54.6    63    7.1   298     8.9   878.9    0.00 
 205    2:00   0.00   53.9    63    6.9   312     9.4   878.9    0.00 
 205    2:10   0.00   55.2    62    6.0   308     9.6   878.9    0.00 
 205    2:20   0.00   54.9    62    6.3   295     8.3   878.8    0.00 
 205    2:30   0.00   54.8    62    6.7   304     9.1   878.9    0.00 
 205    2:40   0.00   53.7    64    5.9   311     7.7   878.9    0.00 
 205    2:50   0.00   54.1    64    7.9   310    10.8   878.8    0.00 
 205    3:00   0.00   55.5    62    8.0   303    11.0   878.7    0.00 
 205    3:10   0.00   55.7    62    8.5   298    11.0   878.9    0.00 
 205    3:20   0.00   55.2    63    8.2   312    11.2   879.0    0.00 
 205    3:30   0.00   55.4    63    8.0   302    11.4   879.0    0.00 
 205    3:40   0.00   55.4    64    7.4   296    10.4   879.0    0.00 
 205    3:50   0.00   55.4    64    7.9   293    10.6   879.0    0.00 
 205    4:00   0.00   55.5    64    8.6   292    11.9   879.1    0.00 
 205    4:10   0.00   55.2    64    5.5   303     9.3   879.2    0.00 
 205    4:20   0.00   53.8    68    4.6   333     6.6   879.3    0.00 
 205    4:30   0.00   53.2    70    3.7    13     5.6   879.3    0.00 
 205    4:40   0.00   53.1    70    3.6   351     5.5   879.2    0.00 
 205    4:50   0.00   52.2    73    4.2    11     7.5   879.3    0.00 
 205    5:00   0.01   53.3    70    1.9   327     3.1   879.4    0.00 
 205    5:10   0.03   54.9    65    2.8   288     4.0   879.5    0.00 
 205    5:20   0.05   55.6    65    4.4   318     7.5   879.6    0.00 
 205    5:30   0.08   56.0    65    6.7   309    10.4   879.7    0.00 
 205    5:40   0.10   57.1    63    5.4   318    10.7   879.9    0.00 
 205    5:50   0.13   57.5    65    5.2   330     9.3   879.9    0.00 
 205    6:00   0.16   58.0    64    7.1   339    10.2   880.1    0.00 
 205    6:10   0.18   58.7    64    7.1   337    10.7   880.2    0.00 
 205    6:20   0.22   59.4    62    8.4   329    11.8   880.4    0.00 
 205    6:30   0.25   60.2    63    6.2   340     9.1   880.6    0.00 
 205    6:40   0.28   61.2    62    6.0   338     9.6   880.7    0.00 
 205    6:50   0.31   62.3    61    6.2   353    11.3   880.8    0.00 
 205    7:00   0.34   62.9    58    6.4     5    10.2   880.9    0.00 
 205    7:10   0.37   63.2    58    8.4    11    12.3   881.0    0.00 
 205    7:20   0.40   63.8    58    7.1     1    10.7   881.1    0.00 
 205    7:30   0.43   65.1    56    5.0   354     7.9   881.2    0.00 
 205    7:40   0.46   65.5    54    6.7   354    11.6   881.2    0.00 
 205    7:50   0.50   65.7    52    5.9     5     9.6   881.2    0.00 
 205    8:00   0.53   66.6    45    3.2   346     9.3   881.0    0.00 
 205    8:10   0.55   67.6    45    2.3   296     4.8   881.0    0.00 
 205    8:20   0.58   68.5    45    2.7    23     6.3   881.0    0.00 
 205    8:30   0.61   68.0    44    2.8    80     5.9   881.0    0.00 
 205    8:40   0.64   68.3    44    4.8    86     6.9   880.9    0.00 
 205    8:50   0.66   68.3    44    3.7    76     7.0   880.9    0.00 
 205    9:00   0.69   68.8    40    4.0   103     6.4   880.8    0.00 
 205    9:10   0.71   69.8    38    2.0    75     4.4   880.8    0.00 
 205    9:20   0.74   69.8    38    3.4    91     8.1   880.7    0.00 
 205    9:30   0.76   70.0    39    3.8    70     6.7   880.6    0.00 
 205    9:40   0.78   69.7    40    3.1    28     5.6   880.5    0.00 
 205    9:50   0.80   71.6    38    1.5    66     4.4   880.4    0.00 
 205   10:00   0.82   72.2    36    2.1    52     6.3   880.4    0.00 
 205   10:10   0.84   72.4    38    2.3   114     5.0   880.3    0.00 
 205   10:20   0.85   72.4    36    4.6    98     7.7   880.2    0.00 
 205   10:30   0.87   72.5    35    4.2    92     7.4   880.2    0.00 
 205   10:40   0.88   72.1    38    4.0    76     7.5   880.1    0.00 
 205   10:50   0.89   72.7    36    4.1    84     9.6   880.0    0.00 
 205   11:00   0.90   73.2    34    4.9   104     7.7   879.9    0.00 
 205   11:10   0.91   73.0    38    4.7    47     8.2   879.7    0.00 
 205   11:20   0.92   73.7    36    3.0    76     5.9   879.6    0.00 
 205   11:30   0.92   74.2    32    4.4    86    11.8   879.5    0.00 
 205   11:40   0.93   74.4    31    2.8    74     6.5   879.3    0.00 
 205   11:50   0.93   75.1    30    2.7    63     5.5   879.2    0.00 
 205   12:00   0.93   75.5    34    3.0    13     5.1   879.1    0.00 
 205   12:10   0.93   75.8    33    3.7    78     7.5   879.1    0.00 
 205   12:20   0.92   76.2    28    5.3   126    11.0   878.9    0.00 
 205   12:30   0.92   78.5    30    2.5    25     5.1   878.8    0.00 
 205   12:40   0.91   76.5    34    4.1    48     7.7   878.7    0.00 
 205   12:50   0.91   76.7    31    5.2    89     7.6   878.7    0.00 
 205   13:00   0.90   78.5    26    2.1    89     7.0   878.5    0.00 
 205   13:10   0.89   78.0    29    6.7   141    13.2   878.3    0.00 
 205   13:20   0.88   79.0    28    6.0   137    10.7   878.1    0.00 
 205   13:30   0.87   78.0    27    6.2   102    13.7   877.9    0.00 
 205   13:40   0.86   78.3    26    5.4   166    11.7   877.9    0.00 
 205   13:50   0.84   79.9    27    4.1   120    11.6   877.7    0.00 
 205   14:00   0.82   79.0    27    4.5   122    10.1   877.5    0.00 
 205   14:10   0.81   80.4    27    4.8   108     9.6   877.3    0.00 
 205   14:20   0.79   80.3    26    6.2   153    12.6   877.2    0.00 
 205   14:30   0.77   78.7    29    6.7    82    11.7   877.1    0.00 
 205   14:40   0.75   78.9    30    5.2    96    13.0   876.9    0.00 
 205   14:50   0.72   80.5    25    4.4   151     8.7   876.7    0.00 
 205   15:00   0.70   80.6    26    4.5   148     8.8   876.7    0.00 
 205   15:10   0.68   79.8    30    5.6    61     9.9   876.5    0.00 
 205   15:20   0.65   78.9    30    5.0    84    10.7   876.4    0.00 
 205   15:30   0.62   78.2    30    5.0   101    10.5   876.3    0.00 
 205   15:40   0.60   78.7    30    3.9    43     8.1   876.2    0.00 
 205   15:50   0.57   79.7    34    2.2    15     6.0   876.1    0.00 
 205   16:00   0.54   81.4    24    3.3   121     6.9   876.0    0.00 
 205   16:10   0.51   79.6    30    5.4   129     9.3   875.9    0.00 
 205   16:20   0.48   79.6    30    4.1   108     7.6   875.8    0.00 
 205   16:30   0.45   79.0    30    4.6   106    12.6   875.8    0.00 
 205   16:40   0.42   78.7    28    5.7   122    10.4   875.7    0.00 
 205   16:50   0.39   78.0    28    5.3    96    10.0   875.7    0.00 
 205   17:00   0.36   77.9    28    6.0    92     9.4   875.6    0.00 
 205   17:10   0.33   78.2    26    5.0   142     9.3   875.5    0.00 
 205   17:20   0.30   78.7    26    4.4   113     9.1   875.4    0.00 
 205   17:30   0.27   77.3    30    5.0   102     8.3   875.3    0.00 
 205   17:40   0.24   77.0    34    2.5    91     3.9   875.3    0.00 
 205   17:50   0.21   76.8    30    5.1   116    11.1   875.1    0.00 
 205   18:00   0.18   76.2    31    3.9   119     6.9   875.1    0.00 
 205   18:10   0.15   76.4    28    4.6   137     7.2   875.1    0.00 
 205   18:20   0.13   75.4    29    3.9   108     7.1   875.1    0.00 
 205   18:30   0.10   76.6    26    1.6    78     3.3   875.2    0.00 
 205   18:40   0.08   77.5    24    1.5    91     2.2   875.3    0.00 
 205   18:50   0.06   78.7    23    1.2    93     3.3   875.3    0.00 
 205   19:00   0.03   75.0    29    2.8    99     3.4   875.3    0.00 
 205   19:10   0.01   72.9    26    2.1   115     2.7   875.3    0.00 
 205   19:20   0.01   72.3    24    1.5   164     2.2   875.4    0.00 
 205   19:30   0.00   72.3    22    1.2   219     1.5   875.5    0.00 
 205   19:40   0.00   73.6    20    2.6   244     3.7   875.6    0.00 
 205   19:50   0.00   72.0    23    4.2   243     4.7   875.7    0.00 
 205   20:00   0.00   70.5    23    3.8   263     4.2   875.7    0.00 
 205   20:10   0.00   66.4    30    5.6   292     6.7   875.8    0.00 
 205   20:20   0.00   63.6    34    6.4   296     7.1   875.9    0.00 

Return to Hualapai Flat graphs page.


Western Regional Climate Center,wrcc@dri.edu